sensor_id;sensor_type;location;lat;lon;timestamp;temperature;humidity
40153;DHT22;26371;56.992;23.912;2023-04-24T00:02:15;12.90;93.90
40153;DHT22;26371;56.992;23.912;2023-04-24T00:04:43;12.90;93.80
40153;DHT22;26371;56.992;23.912;2023-04-24T00:07:12;12.80;93.90
40153;DHT22;26371;56.992;23.912;2023-04-24T00:09:41;12.80;94.00
40153;DHT22;26371;56.992;23.912;2023-04-24T00:12:09;12.80;93.90
40153;DHT22;26371;56.992;23.912;2023-04-24T00:14:38;12.70;94.00
40153;DHT22;26371;56.992;23.912;2023-04-24T00:17:07;12.70;94.10
40153;DHT22;26371;56.992;23.912;2023-04-24T00:19:36;12.70;94.00
40153;DHT22;26371;56.992;23.912;2023-04-24T00:22:04;12.80;93.90
40153;DHT22;26371;56.992;23.912;2023-04-24T00:24:32;12.70;94.00
40153;DHT22;26371;56.992;23.912;2023-04-24T00:27:01;12.70;94.00
40153;DHT22;26371;56.992;23.912;2023-04-24T00:29:29;12.60;93.80
40153;DHT22;26371;56.992;23.912;2023-04-24T00:31:57;12.70;94.10
40153;DHT22;26371;56.992;23.912;2023-04-24T00:34:27;12.70;93.80
40153;DHT22;26371;56.992;23.912;2023-04-24T00:36:55;12.70;94.10
40153;DHT22;26371;56.992;23.912;2023-04-24T00:39:24;12.60;94.00
40153;DHT22;26371;56.992;23.912;2023-04-24T00:41:52;12.60;93.70
40153;DHT22;26371;56.992;23.912;2023-04-24T00:44:22;12.60;94.10
40153;DHT22;26371;56.992;23.912;2023-04-24T00:46:50;12.60;94.10
40153;DHT22;26371;56.992;23.912;2023-04-24T00:49:21;12.60;94.30
40153;DHT22;26371;56.992;23.912;2023-04-24T00:51:51;12.60;94.00
40153;DHT22;26371;56.992;23.912;2023-04-24T00:54:20;12.60;94.00
40153;DHT22;26371;56.992;23.912;2023-04-24T00:56:50;12.60;94.00
40153;DHT22;26371;56.992;23.912;2023-04-24T00:59:19;12.60;94.00
40153;DHT22;26371;56.992;23.912;2023-04-24T01:01:47;12.60;94.00
40153;DHT22;26371;56.992;23.912;2023-04-24T01:04:16;12.70;94.10
40153;DHT22;26371;56.992;23.912;2023-04-24T01:06:45;12.60;94.00
40153;DHT22;26371;56.992;23.912;2023-04-24T01:09:14;12.60;94.10
40153;DHT22;26371;56.992;23.912;2023-04-24T01:11:43;12.60;94.20
40153;DHT22;26371;56.992;23.912;2023-04-24T01:14:11;12.50;94.30
40153;DHT22;26371;56.992;23.912;2023-04-24T01:16:40;12.50;94.30
40153;DHT22;26371;56.992;23.912;2023-04-24T01:19:08;12.50;94.20
40153;DHT22;26371;56.992;23.912;2023-04-24T01:21:37;12.50;94.30
40153;DHT22;26371;56.992;23.912;2023-04-24T01:24:07;12.50;94.30
40153;DHT22;26371;56.992;23.912;2023-04-24T01:26:37;12.50;94.30
40153;DHT22;26371;56.992;23.912;2023-04-24T01:29:06;12.40;94.30
40153;DHT22;26371;56.992;23.912;2023-04-24T01:31:34;12.40;94.40
40153;DHT22;26371;56.992;23.912;2023-04-24T01:34:02;12.40;94.50
40153;DHT22;26371;56.992;23.912;2023-04-24T01:36:31;12.40;94.40
40153;DHT22;26371;56.992;23.912;2023-04-24T01:38:59;12.30;94.60
40153;DHT22;26371;56.992;23.912;2023-04-24T01:41:29;12.30;94.60
40153;DHT22;26371;56.992;23.912;2023-04-24T01:43:58;12.30;94.50
40153;DHT22;26371;56.992;23.912;2023-04-24T01:46:26;12.30;94.50
40153;DHT22;26371;56.992;23.912;2023-04-24T01:48:56;12.30;94.60
40153;DHT22;26371;56.992;23.912;2023-04-24T01:51:26;12.30;94.70
40153;DHT22;26371;56.992;23.912;2023-04-24T01:53:56;12.30;94.70
40153;DHT22;26371;56.992;23.912;2023-04-24T01:56:24;12.30;94.70
40153;DHT22;26371;56.992;23.912;2023-04-24T01:58:55;12.20;94.60
40153;DHT22;26371;56.992;23.912;2023-04-24T02:01:24;12.20;94.60
40153;DHT22;26371;56.992;23.912;2023-04-24T02:03:52;12.20;94.80
40153;DHT22;26371;56.992;23.912;2023-04-24T02:06:21;12.10;94.90
40153;DHT22;26371;56.992;23.912;2023-04-24T02:08:49;12.10;95.10
40153;DHT22;26371;56.992;23.912;2023-04-24T02:11:17;12.00;95.10
40153;DHT22;26371;56.992;23.912;2023-04-24T02:13:46;12.00;95.20
40153;DHT22;26371;56.992;23.912;2023-04-24T02:16:15;11.90;95.30
40153;DHT22;26371;56.992;23.912;2023-04-24T02:18:44;11.90;95.30
40153;DHT22;26371;56.992;23.912;2023-04-24T02:21:12;11.90;95.30
40153;DHT22;26371;56.992;23.912;2023-04-24T05:40:14;13.10;96.20
40153;DHT22;26371;56.992;23.912;2023-04-24T05:42:42;13.10;95.90
40153;DHT22;26371;56.992;23.912;2023-04-24T05:45:11;13.10;96.30
40153;DHT22;26371;56.992;23.912;2023-04-24T05:47:43;13.20;95.70
40153;DHT22;26371;56.992;23.912;2023-04-24T05:50:12;13.30;95.80
40153;DHT22;26371;56.992;23.912;2023-04-24T05:52:40;13.40;95.80
40153;DHT22;26371;56.992;23.912;2023-04-24T05:55:23;13.50;96.10
40153;DHT22;26371;56.992;23.912;2023-04-24T05:57:53;13.50;95.90
40153;DHT22;26371;56.992;23.912;2023-04-24T06:00:23;13.60;95.90
40153;DHT22;26371;56.992;23.912;2023-04-24T06:02:59;13.60;95.60
40153;DHT22;26371;56.992;23.912;2023-04-24T06:05:28;13.60;95.90
40153;DHT22;26371;56.992;23.912;2023-04-24T06:07:57;13.60;96.20
40153;DHT22;26371;56.992;23.912;2023-04-24T06:10:32;13.60;96.20
40153;DHT22;26371;56.992;23.912;2023-04-24T06:13:01;13.60;96.50
40153;DHT22;26371;56.992;23.912;2023-04-24T06:15:30;13.60;96.30
40153;DHT22;26371;56.992;23.912;2023-04-24T06:18:04;13.60;96.50
40153;DHT22;26371;56.992;23.912;2023-04-24T06:20:33;13.60;96.70
40153;DHT22;26371;56.992;23.912;2023-04-24T06:23:02;13.50;96.20
40153;DHT22;26371;56.992;23.912;2023-04-24T06:25:33;13.50;96.60
40153;DHT22;26371;56.992;23.912;2023-04-24T06:28:02;13.40;97.20
40153;DHT22;26371;56.992;23.912;2023-04-24T06:30:31;13.40;97.50
40153;DHT22;26371;56.992;23.912;2023-04-24T06:33:00;13.40;97.20
40153;DHT22;26371;56.992;23.912;2023-04-24T06:35:44;13.30;97.70
40153;DHT22;26371;56.992;23.912;2023-04-24T06:38:17;13.30;97.90
40153;DHT22;26371;56.992;23.912;2023-04-24T06:40:46;13.30;97.70
40153;DHT22;26371;56.992;23.912;2023-04-24T06:43:16;13.30;98.20
40153;DHT22;26371;56.992;23.912;2023-04-24T06:45:44;13.30;98.20
40153;DHT22;26371;56.992;23.912;2023-04-24T06:48:13;13.30;97.70
40153;DHT22;26371;56.992;23.912;2023-04-24T06:50:42;13.30;97.10
40153;DHT22;26371;56.992;23.912;2023-04-24T06:53:10;13.40;97.20
40153;DHT22;26371;56.992;23.912;2023-04-24T06:55:41;13.40;96.80
40153;DHT22;26371;56.992;23.912;2023-04-24T06:58:11;13.40;96.80
40153;DHT22;26371;56.992;23.912;2023-04-24T07:00:40;13.50;96.80
40153;DHT22;26371;56.992;23.912;2023-04-24T07:03:08;13.50;96.70
40153;DHT22;26371;56.992;23.912;2023-04-24T07:05:37;13.50;96.80
40153;DHT22;26371;56.992;23.912;2023-04-24T07:08:05;13.40;96.60
40153;DHT22;26371;56.992;23.912;2023-04-24T07:10:35;13.50;96.70
40153;DHT22;26371;56.992;23.912;2023-04-24T07:13:03;13.50;96.70
40153;DHT22;26371;56.992;23.912;2023-04-24T07:15:35;13.50;97.00
40153;DHT22;26371;56.992;23.912;2023-04-24T07:18:03;13.50;96.50
40153;DHT22;26371;56.992;23.912;2023-04-24T07:20:32;13.50;96.70
40153;DHT22;26371;56.992;23.912;2023-04-24T07:23:02;13.50;96.70
40153;DHT22;26371;56.992;23.912;2023-04-24T07:25:31;13.50;96.70
40153;DHT22;26371;56.992;23.912;2023-04-24T07:28:00;13.50;96.70
40153;DHT22;26371;56.992;23.912;2023-04-24T07:30:28;13.60;96.80
40153;DHT22;26371;56.992;23.912;2023-04-24T07:32:58;13.60;96.80
40153;DHT22;26371;56.992;23.912;2023-04-24T07:35:26;13.70;96.90
40153;DHT22;26371;56.992;23.912;2023-04-24T07:37:55;13.80;96.80
40153;DHT22;26371;56.992;23.912;2023-04-24T07:40:23;13.80;96.40
40153;DHT22;26371;56.992;23.912;2023-04-24T07:42:52;13.70;96.60
40153;DHT22;26371;56.992;23.912;2023-04-24T07:45:20;13.80;96.80
40153;DHT22;26371;56.992;23.912;2023-04-24T07:47:50;13.70;96.70
40153;DHT22;26371;56.992;23.912;2023-04-24T07:50:20;13.70;96.80
40153;DHT22;26371;56.992;23.912;2023-04-24T07:52:48;13.70;97.50
40153;DHT22;26371;56.992;23.912;2023-04-24T07:55:17;13.60;98.00
40153;DHT22;26371;56.992;23.912;2023-04-24T07:57:49;13.50;98.30
40153;DHT22;26371;56.992;23.912;2023-04-24T08:00:18;13.50;98.90
40153;DHT22;26371;56.992;23.912;2023-04-24T08:02:46;13.40;99.90
40153;DHT22;26371;56.992;23.912;2023-04-24T08:05:15;13.30;99.90
40153;DHT22;26371;56.992;23.912;2023-04-24T08:07:45;13.20;99.90
40153;DHT22;26371;56.992;23.912;2023-04-24T08:10:15;13.20;99.90
40153;DHT22;26371;56.992;23.912;2023-04-24T08:12:44;13.20;99.90
40153;DHT22;26371;56.992;23.912;2023-04-24T08:15:12;13.20;99.90
40153;DHT22;26371;56.992;23.912;2023-04-24T08:17:40;13.30;99.90
40153;DHT22;26371;56.992;23.912;2023-04-24T08:20:09;13.30;99.90
40153;DHT22;26371;56.992;23.912;2023-04-24T08:22:40;13.30;99.90
40153;DHT22;26371;56.992;23.912;2023-04-24T08:25:10;13.30;99.90
40153;DHT22;26371;56.992;23.912;2023-04-24T08:27:39;13.40;99.90
40153;DHT22;26371;56.992;23.912;2023-04-24T08:30:07;13.40;99.90
40153;DHT22;26371;56.992;23.912;2023-04-24T08:32:37;13.50;99.90
40153;DHT22;26371;56.992;23.912;2023-04-24T08:35:06;13.50;99.90
40153;DHT22;26371;56.992;23.912;2023-04-24T08:37:36;13.50;99.90
40153;DHT22;26371;56.992;23.912;2023-04-24T08:40:05;13.60;99.90
40153;DHT22;26371;56.992;23.912;2023-04-24T08:42:36;13.70;99.90
40153;DHT22;26371;56.992;23.912;2023-04-24T08:45:05;13.90;99.90
40153;DHT22;26371;56.992;23.912;2023-04-24T08:47:35;14.00;99.90
40153;DHT22;26371;56.992;23.912;2023-04-24T08:50:04;14.10;99.90
40153;DHT22;26371;56.992;23.912;2023-04-24T08:52:34;14.20;99.60
40153;DHT22;26371;56.992;23.912;2023-04-24T08:55:02;14.30;99.40
40153;DHT22;26371;56.992;23.912;2023-04-24T08:57:31;14.30;99.30
40153;DHT22;26371;56.992;23.912;2023-04-24T09:00:02;14.30;99.10
40153;DHT22;26371;56.992;23.912;2023-04-24T09:02:31;14.40;99.20
40153;DHT22;26371;56.992;23.912;2023-04-24T09:05:02;14.40;98.20
40153;DHT22;26371;56.992;23.912;2023-04-24T09:07:34;14.30;98.40
40153;DHT22;26371;56.992;23.912;2023-04-24T09:10:03;14.30;98.70
40153;DHT22;26371;56.992;23.912;2023-04-24T09:12:32;14.30;98.90
40153;DHT22;26371;56.992;23.912;2023-04-24T09:15:02;14.30;98.80
40153;DHT22;26371;56.992;23.912;2023-04-24T09:17:31;14.30;98.90
40153;DHT22;26371;56.992;23.912;2023-04-24T09:20:00;14.50;98.90
40153;DHT22;26371;56.992;23.912;2023-04-24T09:22:29;14.60;98.80
40153;DHT22;26371;56.992;23.912;2023-04-24T09:25:02;14.60;98.60
40153;DHT22;26371;56.992;23.912;2023-04-24T09:27:32;14.70;98.60
40153;DHT22;26371;56.992;23.912;2023-04-24T09:30:02;14.80;98.10
40153;DHT22;26371;56.992;23.912;2023-04-24T09:32:31;14.90;98.50
40153;DHT22;26371;56.992;23.912;2023-04-24T09:35:07;15.00;98.90
40153;DHT22;26371;56.992;23.912;2023-04-24T09:37:36;15.10;98.50
40153;DHT22;26371;56.992;23.912;2023-04-24T09:40:15;15.10;98.20
40153;DHT22;26371;56.992;23.912;2023-04-24T09:42:44;15.20;98.80
40153;DHT22;26371;56.992;23.912;2023-04-24T09:45:14;15.30;98.70
40153;DHT22;26371;56.992;23.912;2023-04-24T09:47:43;15.40;98.50
40153;DHT22;26371;56.992;23.912;2023-04-24T09:50:12;15.60;98.10
40153;DHT22;26371;56.992;23.912;2023-04-24T09:52:45;15.70;97.70
40153;DHT22;26371;56.992;23.912;2023-04-24T09:55:16;15.70;97.80
40153;DHT22;26371;56.992;23.912;2023-04-24T09:57:48;15.80;97.90
40153;DHT22;26371;56.992;23.912;2023-04-24T10:00:20;16.10;97.60
40153;DHT22;26371;56.992;23.912;2023-04-24T10:02:50;16.20;97.50
40153;DHT22;26371;56.992;23.912;2023-04-24T10:05:21;16.30;97.60
40153;DHT22;26371;56.992;23.912;2023-04-24T10:07:51;16.30;97.00
40153;DHT22;26371;56.992;23.912;2023-04-24T10:10:19;16.30;97.40
40153;DHT22;26371;56.992;23.912;2023-04-24T10:12:48;16.30;96.80
40153;DHT22;26371;56.992;23.912;2023-04-24T10:15:17;16.20;96.90
40153;DHT22;26371;56.992;23.912;2023-04-24T10:17:49;16.30;97.30
40153;DHT22;26371;56.992;23.912;2023-04-24T10:20:20;16.30;96.70
40153;DHT22;26371;56.992;23.912;2023-04-24T10:22:49;16.30;97.10
40153;DHT22;26371;56.992;23.912;2023-04-24T10:25:21;16.40;96.60
40153;DHT22;26371;56.992;23.912;2023-04-24T10:27:51;16.50;96.80
40153;DHT22;26371;56.992;23.912;2023-04-24T10:30:19;16.50;96.40
40153;DHT22;26371;56.992;23.912;2023-04-24T10:32:47;16.60;96.50
40153;DHT22;26371;56.992;23.912;2023-04-24T10:35:18;16.70;96.20
40153;DHT22;26371;56.992;23.912;2023-04-24T10:37:50;16.60;96.00
40153;DHT22;26371;56.992;23.912;2023-04-24T10:40:19;16.60;96.30
40153;DHT22;26371;56.992;23.912;2023-04-24T10:42:53;16.70;96.70
40153;DHT22;26371;56.992;23.912;2023-04-24T10:45:24;16.80;95.90
40153;DHT22;26371;56.992;23.912;2023-04-24T10:47:58;16.90;96.00
40153;DHT22;26371;56.992;23.912;2023-04-24T10:50:43;17.00;95.90
40153;DHT22;26371;56.992;23.912;2023-04-24T10:53:13;17.00;95.90
40153;DHT22;26371;56.992;23.912;2023-04-24T10:55:45;17.10;95.60
40153;DHT22;26371;56.992;23.912;2023-04-24T10:58:15;17.30;95.70
40153;DHT22;26371;56.992;23.912;2023-04-24T11:00:54;17.40;94.60
40153;DHT22;26371;56.992;23.912;2023-04-24T11:03:24;17.40;95.20
40153;DHT22;26371;56.992;23.912;2023-04-24T11:05:59;17.30;95.10
40153;DHT22;26371;56.992;23.912;2023-04-24T11:08:28;17.20;95.40
40153;DHT22;26371;56.992;23.912;2023-04-24T11:10:58;17.10;95.80
40153;DHT22;26371;56.992;23.912;2023-04-24T11:13:27;16.90;95.70
40153;DHT22;26371;56.992;23.912;2023-04-24T11:16:12;16.80;96.00
40153;DHT22;26371;56.992;23.912;2023-04-24T11:18:41;16.80;96.20
40153;DHT22;26371;56.992;23.912;2023-04-24T11:21:15;16.80;96.30
40153;DHT22;26371;56.992;23.912;2023-04-24T11:23:44;16.90;96.50
40153;DHT22;26371;56.992;23.912;2023-04-24T11:26:14;17.10;96.10
40153;DHT22;26371;56.992;23.912;2023-04-24T11:28:46;17.30;95.70
40153;DHT22;26371;56.992;23.912;2023-04-24T11:34:11;17.10;95.60
40153;DHT22;26371;56.992;23.912;2023-04-24T11:36:43;17.00;95.80
40153;DHT22;26371;56.992;23.912;2023-04-24T11:39:12;16.90;95.80
40153;DHT22;26371;56.992;23.912;2023-04-24T11:41:40;16.70;96.20
40153;DHT22;26371;56.992;23.912;2023-04-24T11:44:09;16.60;96.60
40153;DHT22;26371;56.992;23.912;2023-04-24T11:46:39;16.40;96.70
40153;DHT22;26371;56.992;23.912;2023-04-24T11:49:08;16.30;97.10
40153;DHT22;26371;56.992;23.912;2023-04-24T11:51:36;16.30;97.50
40153;DHT22;26371;56.992;23.912;2023-04-24T11:54:21;16.20;97.90
40153;DHT22;26371;56.992;23.912;2023-04-24T11:56:50;16.20;98.60
40153;DHT22;26371;56.992;23.912;2023-04-24T11:59:18;16.20;99.00
40153;DHT22;26371;56.992;23.912;2023-04-24T12:01:49;16.10;99.60
40153;DHT22;26371;56.992;23.912;2023-04-24T12:04:17;16.10;99.90
40153;DHT22;26371;56.992;23.912;2023-04-24T12:06:58;16.10;99.90
40153;DHT22;26371;56.992;23.912;2023-04-24T12:09:28;16.00;99.90
40153;DHT22;26371;56.992;23.912;2023-04-24T12:11:58;16.00;99.90
40153;DHT22;26371;56.992;23.912;2023-04-24T12:14:26;16.00;99.90
40153;DHT22;26371;56.992;23.912;2023-04-24T12:16:54;16.00;99.90
40153;DHT22;26371;56.992;23.912;2023-04-24T12:19:24;15.90;99.90
40153;DHT22;26371;56.992;23.912;2023-04-24T12:21:59;15.80;99.90
40153;DHT22;26371;56.992;23.912;2023-04-24T12:24:35;15.70;99.90
40153;DHT22;26371;56.992;23.912;2023-04-24T12:27:03;15.70;99.90
40153;DHT22;26371;56.992;23.912;2023-04-24T12:29:31;15.70;99.90
40153;DHT22;26371;56.992;23.912;2023-04-24T12:32:00;15.40;99.90
40153;DHT22;26371;56.992;23.912;2023-04-24T12:34:28;15.30;99.90
40153;DHT22;26371;56.992;23.912;2023-04-24T12:36:56;15.30;99.90
40153;DHT22;26371;56.992;23.912;2023-04-24T12:39:38;15.30;99.90
40153;DHT22;26371;56.992;23.912;2023-04-24T12:42:07;15.30;99.90
40153;DHT22;26371;56.992;23.912;2023-04-24T12:44:35;15.30;99.90
40153;DHT22;26371;56.992;23.912;2023-04-24T12:47:05;15.30;99.90
40153;DHT22;26371;56.992;23.912;2023-04-24T12:49:34;15.30;99.90
40153;DHT22;26371;56.992;23.912;2023-04-24T12:52:02;15.40;99.90
40153;DHT22;26371;56.992;23.912;2023-04-24T12:54:32;15.30;99.90
40153;DHT22;26371;56.992;23.912;2023-04-24T12:57:02;15.20;99.90
40153;DHT22;26371;56.992;23.912;2023-04-24T12:59:30;15.00;99.90
40153;DHT22;26371;56.992;23.912;2023-04-24T13:01:59;14.90;99.90
40153;DHT22;26371;56.992;23.912;2023-04-24T13:04:27;14.80;99.90
40153;DHT22;26371;56.992;23.912;2023-04-24T13:06:56;14.70;99.90
40153;DHT22;26371;56.992;23.912;2023-04-24T13:09:24;14.70;99.90
40153;DHT22;26371;56.992;23.912;2023-04-24T13:11:52;14.60;99.90
40153;DHT22;26371;56.992;23.912;2023-04-24T13:14:22;14.60;99.90
40153;DHT22;26371;56.992;23.912;2023-04-24T13:16:51;14.60;99.90
40153;DHT22;26371;56.992;23.912;2023-04-24T13:19:19;14.60;99.90
40153;DHT22;26371;56.992;23.912;2023-04-24T13:21:47;14.60;99.90
40153;DHT22;26371;56.992;23.912;2023-04-24T13:24:15;14.70;99.90
40153;DHT22;26371;56.992;23.912;2023-04-24T13:26:44;14.70;99.90
40153;DHT22;26371;56.992;23.912;2023-04-24T13:29:12;14.90;99.90
40153;DHT22;26371;56.992;23.912;2023-04-24T13:31:42;15.00;99.90
40153;DHT22;26371;56.992;23.912;2023-04-24T13:34:10;15.10;99.90
40153;DHT22;26371;56.992;23.912;2023-04-24T13:36:39;15.20;99.90
40153;DHT22;26371;56.992;23.912;2023-04-24T13:39:07;15.30;99.90
40153;DHT22;26371;56.992;23.912;2023-04-24T13:41:35;15.30;99.90
40153;DHT22;26371;56.992;23.912;2023-04-24T13:44:04;15.30;99.90
40153;DHT22;26371;56.992;23.912;2023-04-24T13:46:33;15.30;99.90
40153;DHT22;26371;56.992;23.912;2023-04-24T13:49:03;15.30;99.90
40153;DHT22;26371;56.992;23.912;2023-04-24T13:51:32;15.30;99.90
40153;DHT22;26371;56.992;23.912;2023-04-24T13:54:00;15.30;99.90
40153;DHT22;26371;56.992;23.912;2023-04-24T13:56:29;15.40;99.90
40153;DHT22;26371;56.992;23.912;2023-04-24T14:03:58;15.70;99.90
40153;DHT22;26371;56.992;23.912;2023-04-24T14:06:28;16.00;99.90
40153;DHT22;26371;56.992;23.912;2023-04-24T14:08:57;16.00;98.80
40153;DHT22;26371;56.992;23.912;2023-04-24T14:11:25;16.20;98.90
40153;DHT22;26371;56.992;23.912;2023-04-24T14:13:55;16.40;98.60
40153;DHT22;26371;56.992;23.912;2023-04-24T14:18:53;16.80;98.20
40153;DHT22;26371;56.992;23.912;2023-04-24T14:21:22;17.00;98.10
40153;DHT22;26371;56.992;23.912;2023-04-24T14:23:52;17.00;97.50
40153;DHT22;26371;56.992;23.912;2023-04-24T14:26:21;17.10;97.00
40153;DHT22;26371;56.992;23.912;2023-04-24T14:28:50;17.10;97.00
40153;DHT22;26371;56.992;23.912;2023-04-24T14:31:29;17.10;96.40
40153;DHT22;26371;56.992;23.912;2023-04-24T14:33:58;17.00;96.20
40153;DHT22;26371;56.992;23.912;2023-04-24T14:36:26;17.10;96.30
40153;DHT22;26371;56.992;23.912;2023-04-24T14:38:56;17.00;96.30
40153;DHT22;26371;56.992;23.912;2023-04-24T14:41:24;17.00;96.70
40153;DHT22;26371;56.992;23.912;2023-04-24T14:43:52;17.00;96.60
40153;DHT22;26371;56.992;23.912;2023-04-24T14:46:21;16.90;97.20
40153;DHT22;26371;56.992;23.912;2023-04-24T14:48:49;16.90;97.30
40153;DHT22;26371;56.992;23.912;2023-04-24T14:51:18;16.70;97.40
40153;DHT22;26371;56.992;23.912;2023-04-24T14:53:46;16.40;97.40
40153;DHT22;26371;56.992;23.912;2023-04-24T14:56:16;16.20;97.70
40153;DHT22;26371;56.992;23.912;2023-04-24T14:58:45;16.00;98.30
40153;DHT22;26371;56.992;23.912;2023-04-24T15:01:13;15.90;98.30
40153;DHT22;26371;56.992;23.912;2023-04-24T15:03:44;15.90;98.30
40153;DHT22;26371;56.992;23.912;2023-04-24T15:06:14;16.00;98.90
40153;DHT22;26371;56.992;23.912;2023-04-24T15:08:42;16.20;98.80
40153;DHT22;26371;56.992;23.912;2023-04-24T15:11:17;16.40;98.60
40153;DHT22;26371;56.992;23.912;2023-04-24T15:13:45;16.70;98.40
40153;DHT22;26371;56.992;23.912;2023-04-24T15:16:14;16.80;98.10
40153;DHT22;26371;56.992;23.912;2023-04-24T15:18:43;16.70;98.10
40153;DHT22;26371;56.992;23.912;2023-04-24T15:21:11;16.60;98.10
40153;DHT22;26371;56.992;23.912;2023-04-24T15:23:40;16.50;98.60
40153;DHT22;26371;56.992;23.912;2023-04-24T15:26:09;16.30;98.90
40153;DHT22;26371;56.992;23.912;2023-04-24T15:28:38;16.20;99.20
40153;DHT22;26371;56.992;23.912;2023-04-24T15:31:07;16.00;99.50
40153;DHT22;26371;56.992;23.912;2023-04-24T15:33:35;15.90;99.50
40153;DHT22;26371;56.992;23.912;2023-04-24T15:38:33;15.70;99.90
40153;DHT22;26371;56.992;23.912;2023-04-24T15:41:01;15.50;99.90
40153;DHT22;26371;56.992;23.912;2023-04-24T15:43:29;15.40;99.90
40153;DHT22;26371;56.992;23.912;2023-04-24T15:46:02;15.30;99.90
40153;DHT22;26371;56.992;23.912;2023-04-24T15:48:31;15.20;99.90
40153;DHT22;26371;56.992;23.912;2023-04-24T15:51:00;15.10;99.90
40153;DHT22;26371;56.992;23.912;2023-04-24T15:53:28;15.00;99.90
40153;DHT22;26371;56.992;23.912;2023-04-24T15:55:57;14.80;99.90
40153;DHT22;26371;56.992;23.912;2023-04-24T15:58:25;14.60;99.90
40153;DHT22;26371;56.992;23.912;2023-04-24T16:00:53;14.50;99.90
40153;DHT22;26371;56.992;23.912;2023-04-24T16:03:23;14.50;99.90
40153;DHT22;26371;56.992;23.912;2023-04-24T16:05:52;14.40;99.90
40153;DHT22;26371;56.992;23.912;2023-04-24T16:08:21;14.30;99.90
40153;DHT22;26371;56.992;23.912;2023-04-24T16:10:49;14.30;99.90
40153;DHT22;26371;56.992;23.912;2023-04-24T17:35:40;14.70;99.90
40153;DHT22;26371;56.992;23.912;2023-04-24T17:38:08;14.90;99.90
40153;DHT22;26371;56.992;23.912;2023-04-24T17:40:36;14.90;99.90
40153;DHT22;26371;56.992;23.912;2023-04-24T17:43:06;14.80;99.90
40153;DHT22;26371;56.992;23.912;2023-04-24T18:30:23;13.80;99.90
40153;DHT22;26371;56.992;23.912;2023-04-24T18:32:52;13.80;99.90
40153;DHT22;26371;56.992;23.912;2023-04-24T18:35:21;13.70;99.90
40153;DHT22;26371;56.992;23.912;2023-04-24T18:37:51;13.70;99.90
40153;DHT22;26371;56.992;23.912;2023-04-24T18:40:20;13.80;99.90
40153;DHT22;26371;56.992;23.912;2023-04-24T18:42:48;13.90;99.90
40153;DHT22;26371;56.992;23.912;2023-04-24T18:45:18;13.90;99.90
40153;DHT22;26371;56.992;23.912;2023-04-24T18:47:48;13.90;99.90
40153;DHT22;26371;56.992;23.912;2023-04-24T18:50:19;14.00;99.90
40153;DHT22;26371;56.992;23.912;2023-04-24T18:52:48;14.10;99.90
40153;DHT22;26371;56.992;23.912;2023-04-24T18:55:17;14.20;99.90
40153;DHT22;26371;56.992;23.912;2023-04-24T18:57:45;14.30;99.90
40153;DHT22;26371;56.992;23.912;2023-04-24T19:00:14;14.40;99.90
40153;DHT22;26371;56.992;23.912;2023-04-24T19:02:42;14.40;99.90
40153;DHT22;26371;56.992;23.912;2023-04-24T19:05:12;14.50;99.90
40153;DHT22;26371;56.992;23.912;2023-04-24T19:07:40;14.60;99.90
40153;DHT22;26371;56.992;23.912;2023-04-24T19:10:09;14.60;99.90
40153;DHT22;26371;56.992;23.912;2023-04-24T19:12:37;14.60;99.90
40153;DHT22;26371;56.992;23.912;2023-04-24T19:15:07;14.70;99.90
40153;DHT22;26371;56.992;23.912;2023-04-24T19:17:37;14.70;99.90
40153;DHT22;26371;56.992;23.912;2023-04-24T19:20:07;14.70;99.90
40153;DHT22;26371;56.992;23.912;2023-04-24T19:22:37;14.60;99.90
40153;DHT22;26371;56.992;23.912;2023-04-24T19:25:05;14.50;99.90
40153;DHT22;26371;56.992;23.912;2023-04-24T19:27:34;14.50;99.90
40153;DHT22;26371;56.992;23.912;2023-04-24T19:30:03;14.50;99.90
40153;DHT22;26371;56.992;23.912;2023-04-24T19:32:31;14.50;99.90
40153;DHT22;26371;56.992;23.912;2023-04-24T19:35:00;14.50;99.90
40153;DHT22;26371;56.992;23.912;2023-04-24T19:37:28;14.40;99.90
40153;DHT22;26371;56.992;23.912;2023-04-24T19:39:59;14.40;99.90
40153;DHT22;26371;56.992;23.912;2023-04-24T19:42:28;14.40;99.90
40153;DHT22;26371;56.992;23.912;2023-04-24T19:45:09;14.40;99.90
40153;DHT22;26371;56.992;23.912;2023-04-24T19:47:38;14.40;99.90
40153;DHT22;26371;56.992;23.912;2023-04-24T19:50:07;14.50;99.90
40153;DHT22;26371;56.992;23.912;2023-04-24T19:52:35;14.40;99.90
40153;DHT22;26371;56.992;23.912;2023-04-24T19:55:05;14.40;99.90
40153;DHT22;26371;56.992;23.912;2023-04-24T19:57:34;14.50;99.90
40153;DHT22;26371;56.992;23.912;2023-04-24T20:00:03;14.50;99.90
40153;DHT22;26371;56.992;23.912;2023-04-24T20:02:32;14.50;99.90
40153;DHT22;26371;56.992;23.912;2023-04-24T20:05:01;14.60;99.90
40153;DHT22;26371;56.992;23.912;2023-04-24T20:07:31;14.70;99.90
40153;DHT22;26371;56.992;23.912;2023-04-24T20:09:59;14.70;99.90
40153;DHT22;26371;56.992;23.912;2023-04-24T20:12:29;14.70;99.90
40153;DHT22;26371;56.992;23.912;2023-04-24T20:14:57;14.80;99.90
40153;DHT22;26371;56.992;23.912;2023-04-24T20:17:25;14.80;99.90
40153;DHT22;26371;56.992;23.912;2023-04-24T20:19:54;14.80;99.90
40153;DHT22;26371;56.992;23.912;2023-04-24T20:22:22;14.80;99.90
40153;DHT22;26371;56.992;23.912;2023-04-24T20:24:51;14.70;99.90
40153;DHT22;26371;56.992;23.912;2023-04-24T20:27:19;14.70;99.90
40153;DHT22;26371;56.992;23.912;2023-04-24T20:29:49;14.60;99.90
40153;DHT22;26371;56.992;23.912;2023-04-24T20:32:17;14.60;99.90
40153;DHT22;26371;56.992;23.912;2023-04-24T20:34:46;14.60;99.90
40153;DHT22;26371;56.992;23.912;2023-04-24T20:37:14;14.50;99.90
40153;DHT22;26371;56.992;23.912;2023-04-24T20:39:43;14.50;99.90
40153;DHT22;26371;56.992;23.912;2023-04-24T20:42:12;14.50;99.90
40153;DHT22;26371;56.992;23.912;2023-04-24T20:44:42;14.50;99.90
40153;DHT22;26371;56.992;23.912;2023-04-24T20:47:13;14.50;99.90
40153;DHT22;26371;56.992;23.912;2023-04-24T20:49:41;14.40;99.90
40153;DHT22;26371;56.992;23.912;2023-04-24T20:52:10;14.40;99.90
40153;DHT22;26371;56.992;23.912;2023-04-24T20:54:38;14.40;99.90
40153;DHT22;26371;56.992;23.912;2023-04-24T20:57:07;14.40;99.90
40153;DHT22;26371;56.992;23.912;2023-04-24T20:59:36;14.40;99.90
40153;DHT22;26371;56.992;23.912;2023-04-24T21:02:05;14.30;99.90
40153;DHT22;26371;56.992;23.912;2023-04-24T21:04:35;14.30;99.90
40153;DHT22;26371;56.992;23.912;2023-04-24T21:07:06;14.30;99.90